Accueil
METAR-TAF:

METAR-TAF

Aéroports :

Plant City, Floride, États-Unis

latitude: 28-00-01N, longitude: 082-09-51W, altitude: 47 m

Observation

Le bulletin a été fait il y a 25 minutes, à 15:15 UTC
Vent 9 kt de est avec des rafales jusqu'à 14 kt
Température 29°C
Humidité 79%
Pression 1021 hPa
Visibilité: 16.1 km
Nuages fragmentés à une hauteur de 2500 ft
Nuages fragmentés à une hauteur de 3400 ft
Ciel couvert à une hauteur de 4800 ft

METAR: KPCM 021515Z AUTO 08009G14KT 10SM BKN025 BKN034 OVC048 29/25 A3016 RMK AO2

Heure: 11:40 (15:40 UTC)


TAF: absent

Observations et prévisions météorologiques de plus de 4000 aéroports (messages METAR et TAF).

Les stations disponibles sont représentées par des disques jaunes et rouges sur la carte.

Passer la souris dessus pour voir le nom de la station.

Cliquer dessus pour voir les observations et prévisions météorologiques.

Pour changer de carte: cliquez sur les boutons verts avec une croix noire pour zoomer, sur le bouton vert avec un tiret pour effectuer un zoom arrière, ou sur les flèches vertes pour les cartes adjacentes.


METAR-TAF: